Time;durP1;ratioP1;P1;durP2;ratioP2;P2;SDS_P1;SDS_P2;PMS_P1;PMS_P2;Temp;Humidity;BMP_temperature;BMP_pressure;BME280_temperature;BME280_humidity;BME280_pressure;Samples;Min_cycle;Max_cycle;Signal;HPM_P1;HPM_P2
2022/05/22 00:01:52;;;;;;;9.07;1.77;;;;;;;11.38;72.34;101639.66;4951381;28;20043;-50
2022/05/22 00:04:18;;;;;;;9.25;1.83;;;;;;;11.32;73.02;101642.47;5013051;28;20525;-50
2022/05/22 00:06:43;;;;;;;6.03;1.70;;;;;;;11.30;72.69;101644.53;5019467;28;20026;-50
2022/05/22 00:09:09;;;;;;;6.80;1.83;;;;;;;11.19;73.36;101648.84;5021799;28;20487;-49
2022/05/22 00:11:34;;;;;;;5.80;1.80;;;;;;;11.15;73.42;101645.00;5024321;28;20021;-49
2022/05/22 00:14:00;;;;;;;4.45;1.95;;;;;;;11.09;74.11;101649.41;5021098;28;20026;-49
2022/05/22 00:16:41;;;;;;;6.93;1.77;;;;;;;11.09;73.95;101649.41;5021460;28;20049;-48
2022/05/22 00:19:16;;;;;;;5.97;1.70;;;;;;;11.07;74.71;101658.72;5021048;28;20040;-48
2022/05/22 00:21:42;;;;;;;6.60;2.17;;;;;;;11.05;74.78;101655.44;5021821;28;20025;-51
2022/05/22 00:24:09;;;;;;;6.75;1.77;;;;;;;11.07;75.16;101651.50;5016241;28;20017;-49
2022/05/22 00:26:35;;;;;;;7.85;2.17;;;;;;;11.01;75.21;101641.69;5020718;28;20022;-50
2022/05/22 00:29:00;;;;;;;6.95;2.10;;;;;;;10.99;75.55;101646.47;5021544;28;20030;-48
2022/05/22 00:31:26;;;;;;;7.50;2.17;;;;;;;10.95;75.74;101639.94;5021637;28;20365;-51
2022/05/22 00:33:52;;;;;;;8.07;1.80;;;;;;;10.95;75.90;101639.09;5020248;28;20043;-49
2022/05/22 00:36:17;;;;;;;3.70;1.60;;;;;;;10.93;75.94;101644.69;5022791;28;20033;-49
2022/05/22 00:38:43;;;;;;;4.75;1.75;;;;;;;10.92;76.08;101640.38;5020991;28;20043;-51
2022/05/22 00:41:10;;;;;;;4.82;1.77;;;;;;;10.93;75.72;101633.94;5019716;28;20105;-50
2022/05/22 00:43:38;;;;;;;5.18;1.60;;;;;;;10.94;76.18;101632.91;5021350;28;20037;-52
2022/05/22 00:46:06;;;;;;;6.45;1.70;;;;;;;10.89;76.44;101635.47;5024735;28;20025;-49
2022/05/22 00:48:32;;;;;;;5.82;1.83;;;;;;;10.90;76.42;101643.28;5021630;28;20025;-49
2022/05/22 00:51:05;;;;;;;4.03;1.63;;;;;;;10.90;76.25;101635.22;5021840;28;20061;-50
2022/05/22 00:53:33;;;;;;;11.55;1.90;;;;;;;10.90;76.04;101637.09;5021654;28;20030;-49
2022/05/22 00:56:01;;;;;;;7.28;1.92;;;;;;;10.89;75.95;101632.78;5024292;28;20033;-49
2022/05/22 00:58:30;;;;;;;5.57;1.67;;;;;;;10.88;76.17;101637.31;5020880;28;20032;-49
2022/05/22 01:00:55;;;;;;;5.45;1.98;;;;;;;10.89;75.85;101638.16;5021827;28;20036;-50
2022/05/22 01:03:27;;;;;;;6.93;1.63;;;;;;;10.90;75.85;101631.72;5022502;28;20023;-50
2022/05/22 01:06:01;;;;;;;6.15;1.70;;;;;;;10.88;75.96;101641.88;5019480;28;20575;-49
2022/05/22 01:08:27;;;;;;;3.90;1.60;;;;;;;10.89;75.85;101632.78;5018472;28;20130;-49
2022/05/22 01:10:57;;;;;;;5.38;2.22;;;;;;;10.89;75.91;101632.78;5021572;28;20542;-51
2022/05/22 01:13:30;;;;;;;4.72;1.70;;;;;;;10.91;75.58;101630.69;5019427;28;20099;-50
2022/05/22 01:15:55;;;;;;;2.97;1.40;;;;;;;10.91;75.62;101625.31;5021322;28;20876;-49
2022/05/22 01:18:21;;;;;;;7.30;1.85;;;;;;;10.95;75.31;101628.34;5024962;28;20112;-51
2022/05/22 01:20:49;;;;;;;5.45;1.70;;;;;;;10.89;75.30;101630.09;5024022;28;20155;-51
2022/05/22 01:23:16;;;;;;;3.13;1.60;;;;;;;10.87;75.34;101634.88;5021555;28;20483;-50
2022/05/22 01:25:42;;;;;;;6.75;2.05;;;;;;;10.83;76.02;101623.78;5020729;28;20044;-51
2022/05/22 01:28:10;;;;;;;3.67;1.92;;;;;;;10.84;75.97;101635.34;5025209;28;20021;-50
2022/05/22 01:30:35;;;;;;;3.42;1.67;;;;;;;10.76;76.35;101638.31;5020519;28;20075;-53
2022/05/22 01:33:01;;;;;;;4.95;1.65;;;;;;;10.75;76.31;101625.97;5023244;28;20033;-51
2022/05/22 01:35:28;;;;;;;9.77;2.13;;;;;;;10.71;76.79;101622.94;5020847;28;20398;-50
2022/05/22 01:37:55;;;;;;;6.15;1.77;;;;;;;10.68;77.08;101619.88;5024412;28;20581;-48
2022/05/22 01:40:21;;;;;;;9.25;2.10;;;;;;;10.69;77.07;101619.66;5023330;28;20518;-48
2022/05/22 01:42:47;;;;;;;6.70;2.30;;;;;;;10.68;77.17;101615.34;5020328;28;20075;-51
2022/05/22 01:45:16;;;;;;;5.15;1.65;;;;;;;10.63;77.87;101617.91;5019199;28;20033;-51
2022/05/22 01:47:43;;;;;;;4.55;2.40;;;;;;;10.64;78.02;101619.53;5021825;28;20025;-48
2022/05/22 01:50:09;;;;;;;6.90;1.70;;;;;;;10.68;77.92;101617.22;5025937;28;20621;-49
2022/05/22 01:52:35;;;;;;;6.57;2.00;;;;;;;10.71;78.07;101622.13;5022591;28;20091;-49
2022/05/22 01:55:01;;;;;;;6.47;1.60;;;;;;;10.70;77.96;101617.81;5021718;28;20475;-49
2022/05/22 01:57:28;;;;;;;6.65;1.92;;;;;;;10.72;78.26;101621.06;5023068;28;20051;-51
2022/05/22 01:59:54;;;;;;;6.22;1.80;;;;;;;10.75;78.41;101629.47;5020023;28;20483;-48
2022/05/22 02:02:19;;;;;;;8.88;2.17;;;;;;;10.72;78.74;101629.91;5021690;28;20052;-49
2022/05/22 02:04:45;;;;;;;5.90;2.03;;;;;;;10.69;78.57;101624.19;5016730;28;20025;-49
2022/05/22 02:09:54;;;;;;;6.65;2.15;;;;;;;10.68;78.68;101625.25;5018924;28;20411;-48
2022/05/22 02:12:20;;;;;;;6.70;1.85;;;;;;;10.67;78.99;101618.25;5021407;28;20037;-51
2022/05/22 02:14:45;;;;;;;9.00;2.00;;;;;;;10.66;78.69;101619.31;5018799;28;20037;-48
2022/05/22 02:17:11;;;;;;;4.70;2.10;;;;;;;10.62;79.05;101610.91;5018410;28;20029;-50
2022/05/22 02:19:36;;;;;;;9.05;2.13;;;;;;;10.62;78.66;101620.81;5020785;28;20029;-51
2022/05/22 02:22:02;;;;;;;6.35;2.33;;;;;;;10.59;79.01;101620.22;5014544;28;20124;-51
2022/05/22 02:24:28;;;;;;;5.53;1.80;;;;;;;10.62;78.39;101612.78;5015092;28;20205;-48
2022/05/22 02:26:53;;;;;;;4.53;2.33;;;;;;;10.53;78.92;101610.38;5019146;28;20025;-50
2022/05/22 02:29:19;;;;;;;7.38;2.47;;;;;;;10.54;79.21;101609.34;5017383;28;20030;-49
2022/05/22 02:31:44;;;;;;;4.18;1.95;;;;;;;10.55;79.16;101612.84;5015210;28;20040;-49
2022/05/22 02:34:09;;;;;;;8.93;2.28;;;;;;;10.55;78.98;101613.66;5020127;28;20030;-50
2022/05/22 02:36:35;;;;;;;7.95;2.88;;;;;;;10.53;79.31;101618.44;5019141;28;20500;-50
2022/05/22 02:39:00;;;;;;;6.65;2.45;;;;;;;10.49;79.57;101616.44;5019285;28;21061;-50
2022/05/22 02:41:26;;;;;;;6.35;2.25;;;;;;;10.48;80.53;101618.28;5011493;28;20054;-50
2022/05/22 02:43:53;;;;;;;8.38;2.10;;;;;;;10.51;80.92;101617.03;5015595;28;20029;-50
2022/05/22 02:46:20;;;;;;;7.05;2.03;;;;;;;10.54;81.15;101616.56;5013355;28;20034;-48
2022/05/22 02:48:46;;;;;;;6.70;2.35;;;;;;;10.55;81.69;101616.34;5016330;28;20028;-50
2022/05/22 02:51:14;;;;;;;6.40;2.17;;;;;;;10.57;81.43;101611.56;5017853;28;20491;-51
2022/05/22 02:53:40;;;;;;;8.13;2.20;;;;;;;10.59;81.08;101604.16;5011716;28;20585;-51
2022/05/22 02:56:16;;;;;;;8.18;2.03;;;;;;;10.59;81.12;101604.16;5016824;28;20056;-51
2022/05/22 02:58:42;;;;;;;6.97;2.20;;;;;;;10.56;81.24;101603.75;5012772;28;20028;-50
2022/05/22 03:01:07;;;;;;;4.43;2.00;;;;;;;10.54;81.07;101598.63;5018437;28;20041;-53
2022/05/22 03:03:34;;;;;;;5.75;2.58;;;;;;;10.56;80.79;101601.88;5017452;28;20021;-50
2022/05/22 03:08:45;;;;;;;10.82;2.40;;;;;;;10.48;80.95;101602.22;5019877;28;20040;-51
2022/05/22 03:11:10;;;;;;;9.80;2.70;;;;;;;10.47;80.99;101597.09;5018343;28;20030;-50
2022/05/22 03:13:36;;;;;;;6.30;2.20;;;;;;;10.44;81.12;101606.41;5021338;28;20095;-48
2022/05/22 03:16:02;;;;;;;7.43;2.90;;;;;;;10.46;81.00;101606.19;5021129;28;20022;-49
2022/05/22 03:18:27;;;;;;;9.30;2.92;;;;;;;10.43;81.05;101607.44;5020877;28;20060;-50
2022/05/22 03:20:53;;;;;;;3.67;2.13;;;;;;;10.42;81.60;101611.19;5018178;28;20094;-48
2022/05/22 03:23:18;;;;;;;8.18;2.80;;;;;;;10.40;81.77;101620.44;5018544;28;20021;-51
2022/05/22 03:25:46;;;;;;;14.13;2.90;;;;;;;10.35;82.48;101623.81;5021016;28;20452;-51
2022/05/22 03:28:13;;;;;;;8.57;2.67;;;;;;;10.33;82.67;101623.22;5017920;28;20034;-48
2022/05/22 03:30:38;;;;;;;8.07;2.50;;;;;;;10.35;82.59;101625.69;5015403;28;20022;-49
2022/05/22 03:33:04;;;;;;;6.80;2.65;;;;;;;10.35;82.52;101628.34;5020017;28;20060;-50
2022/05/22 03:35:29;;;;;;;4.93;1.98;;;;;;;10.38;82.56;101639.44;5017176;28;20510;-49
2022/05/22 03:37:55;;;;;;;6.05;2.20;;;;;;;10.40;82.09;101637.34;5018186;28;20052;-52
2022/05/22 03:40:20;;;;;;;5.43;2.40;;;;;;;10.42;82.11;101640.66;5018438;28;20530;-49
2022/05/22 03:42:46;;;;;;;5.00;2.38;;;;;;;10.47;82.08;101642.63;5021575;28;20025;-50
2022/05/22 03:45:13;;;;;;;7.13;2.33;;;;;;;10.47;82.25;101634.59;5025010;28;20040;-49
2022/05/22 03:47:38;;;;;;;5.70;2.42;;;;;;;10.46;82.32;101638.31;5022859;28;20018;-52
2022/05/22 03:50:06;;;;;;;6.13;2.60;;;;;;;10.44;82.63;101643.91;5023476;28;20360;-49
2022/05/22 03:52:34;;;;;;;6.10;2.70;;;;;;;10.43;82.82;101639.59;5021222;28;20104;-50
2022/05/22 03:54:59;;;;;;;5.65;2.50;;;;;;;10.43;83.10;101642.28;5022041;28;20018;-52
2022/05/22 03:57:25;;;;;;;10.00;2.40;;;;;;;10.43;83.39;101642.28;5023478;28;20520;-51
2022/05/22 03:59:51;;;;;;;6.78;2.50;;;;;;;10.44;83.41;101637.72;5020556;28;20022;-50
2022/05/22 04:02:16;;;;;;;6.47;2.20;;;;;;;10.43;83.08;101639.59;5022997;28;20029;-48
2022/05/22 04:04:42;;;;;;;6.85;2.60;;;;;;;10.42;83.22;101637.97;5018703;28;20491;-49
2022/05/22 04:07:07;;;;;;;8.18;2.90;;;;;;;10.40;83.78;101634.66;5022387;28;20364;-51
2022/05/22 04:09:34;;;;;;;9.85;2.70;;;;;;;10.43;83.54;101634.25;5021850;28;20364;-48
2022/05/22 04:12:00;;;;;;;8.70;2.83;;;;;;;10.48;83.13;101628.19;5022418;28;20025;-52
2022/05/22 04:14:25;;;;;;;9.82;2.70;;;;;;;10.51;82.95;101631.22;5020093;28;20629;-50
2022/05/22 04:16:51;;;;;;;9.45;2.80;;;;;;;10.52;83.20;101635.56;5021711;28;20083;-48
2022/05/22 04:19:17;;;;;;;7.97;2.78;;;;;;;10.52;83.65;101635.56;5018589;28;20080;-49
2022/05/22 04:21:44;;;;;;;5.63;2.67;;;;;;;10.52;83.46;101635.56;5019199;28;20030;-48
2022/05/22 04:26:54;;;;;;;9.93;3.17;;;;;;;10.58;84.02;101642.69;5020995;28;20032;-49
2022/05/22 04:29:19;;;;;;;9.18;2.78;;;;;;;10.67;83.64;101637.03;5018414;28;20466;-50
2022/05/22 04:31:45;;;;;;;7.25;2.75;;;;;;;10.72;83.85;101637.97;5018704;28;20435;-53
2022/05/22 04:34:10;;;;;;;7.53;2.50;;;;;;;10.77;83.72;101645.31;5017826;28;20026;-50
2022/05/22 04:36:36;;;;;;;4.95;2.58;;;;;;;10.82;84.03;101642.78;5017430;28;20128;-49
2022/05/22 04:39:01;;;;;;;7.32;2.88;;;;;;;10.86;83.80;101638.59;5018492;28;20052;-50
2022/05/22 04:41:27;;;;;;;10.15;2.78;;;;;;;10.87;84.12;101640.25;5017492;28;20098;-50
2022/05/22 04:43:52;;;;;;;8.35;3.00;;;;;;;10.87;84.29;101640.25;5019184;28;20021;-50
2022/05/22 04:46:18;;;;;;;10.77;3.15;;;;;;;10.89;84.11;101649.69;5018920;28;20459;-50
2022/05/22 04:48:44;;;;;;;9.65;2.78;;;;;;;10.95;84.05;101647.13;5019415;28;20040;-49
2022/05/22 04:51:09;;;;;;;8.77;3.72;;;;;;;10.91;84.53;101646.78;5020914;28;20029;-50
2022/05/22 04:53:35;;;;;;;8.85;3.60;;;;;;;10.95;84.78;101647.13;5019873;28;20029;-50
2022/05/22 04:56:00;;;;;;;10.60;2.95;;;;;;;10.98;85.01;101652.06;5020371;28;20060;-52
2022/05/22 04:58:26;;;;;;;7.15;3.00;;;;;;;11.05;85.28;101653.59;5020589;28;20033;-49
2022/05/22 05:00:52;;;;;;;8.32;3.53;;;;;;;11.13;85.14;101658.63;5017558;28;20018;-49
2022/05/22 05:03:17;;;;;;;9.88;3.08;;;;;;;11.19;84.43;101654.22;5020268;28;20028;-48
2022/05/22 05:05:51;;;;;;;8.55;2.70;;;;;;;11.22;84.55;101652.94;5018389;28;20123;-50
2022/05/22 05:08:16;;;;;;;7.80;2.70;;;;;;;11.30;84.45;101649.91;5021705;28;20272;-49
2022/05/22 05:10:44;;;;;;;6.97;2.53;;;;;;;11.31;84.29;101647.00;5020032;28;20490;-50
2022/05/22 05:13:10;;;;;;;6.88;3.13;;;;;;;11.37;84.02;101658.69;5021801;28;20120;-48
2022/05/22 05:15:36;;;;;;;4.55;2.60;;;;;;;11.44;83.73;101659.38;5020801;28;20113;-48
2022/05/22 05:18:01;;;;;;;8.35;2.67;;;;;;;11.52;83.77;101659.06;5020812;28;20382;-51
2022/05/22 05:20:27;;;;;;;7.97;2.72;;;;;;;11.62;83.67;101664.66;5019243;28;20036;-50
2022/05/22 05:22:53;;;;;;;7.75;2.20;;;;;;;11.73;83.16;101658.47;5020921;28;20036;-49
2022/05/22 05:25:19;;;;;;;8.93;3.00;;;;;;;11.83;82.87;101665.16;5017832;28;20112;-49
2022/05/22 05:27:45;;;;;;;8.77;2.95;;;;;;;11.88;82.46;101665.28;5019826;28;20044;-48
2022/05/22 05:30:11;;;;;;;7.47;2.55;;;;;;;11.92;82.01;101667.25;5020019;28;20025;-51
2022/05/22 05:32:37;;;;;;;7.30;2.65;;;;;;;11.94;81.88;101667.84;5021790;28;20033;-50
2022/05/22 05:35:07;;;;;;;6.90;2.58;;;;;;;11.94;81.63;101667.84;5020837;28;20502;-49
2022/05/22 05:37:34;;;;;;;9.45;3.35;;;;;;;12.03;81.57;101676.38;5021339;28;20172;-50
2022/05/22 05:39:59;;;;;;;9.25;3.00;;;;;;;12.10;81.42;101677.06;5022382;28;20056;-50
2022/05/22 05:42:31;;;;;;;9.10;3.15;;;;;;;12.16;81.37;101668.03;5016925;28;20025;-50
2022/05/22 05:44:56;;;;;;;7.05;2.97;;;;;;;12.21;80.83;101668.19;5019153;28;20100;-49
2022/05/22 05:47:22;;;;;;;10.05;3.00;;;;;;;12.28;81.20;101673.41;5019587;28;20566;-49
2022/05/22 05:49:47;;;;;;;9.13;2.90;;;;;;;12.31;80.54;101672.94;5017052;28;20038;-49
2022/05/22 05:52:13;;;;;;;8.48;2.70;;;;;;;12.42;81.10;101657.84;5014532;28;20034;-50
2022/05/22 05:54:38;;;;;;;9.93;2.88;;;;;;;12.55;80.55;101663.75;5014397;28;20525;-50
2022/05/22 05:57:04;;;;;;;10.52;2.88;;;;;;;12.63;79.80;101670.63;5017852;28;20047;-48
2022/05/22 05:59:32;;;;;;;8.43;2.90;;;;;;;12.71;79.45;101663.00;5015945;28;20037;-50
2022/05/22 06:01:58;;;;;;;5.63;2.70;;;;;;;12.81;79.61;101667.75;5018225;28;20163;-49
2022/05/22 06:04:23;;;;;;;8.98;3.00;;;;;;;12.81;78.90;101657.00;5017777;28;20108;-49
2022/05/22 06:06:49;;;;;;;9.18;3.03;;;;;;;12.87;78.57;101655.22;5019162;28;20099;-49
2022/05/22 06:09:14;;;;;;;12.15;3.85;;;;;;;12.91;78.39;101656.34;5019563;28;20037;-48
2022/05/22 06:11:40;;;;;;;9.38;2.70;;;;;;;12.97;78.55;101660.78;5018357;28;20049;-49
2022/05/22 06:14:05;;;;;;;5.82;3.10;;;;;;;13.01;78.18;101662.75;5023080;28;20480;-52
2022/05/22 06:16:31;;;;;;;10.60;3.00;;;;;;;13.04;78.68;101666.81;5017068;28;20057;-48
2022/05/22 06:18:57;;;;;;;9.13;3.00;;;;;;;13.02;78.34;101667.06;5017658;28;20033;-50
2022/05/22 06:21:23;;;;;;;7.72;2.53;;;;;;;13.12;78.56;101673.69;5021042;28;20121;-52
2022/05/22 06:23:49;;;;;;;13.13;3.35;;;;;;;13.13;77.81;101664.56;5021253;28;20376;-49
2022/05/22 06:26:20;;;;;;;5.35;2.80;;;;;;;13.16;78.31;101669.47;5017499;28;20030;-50
2022/05/22 06:28:47;;;;;;;9.27;2.72;;;;;;;13.32;77.40;101671.38;5018239;28;20124;-50
2022/05/22 06:31:13;;;;;;;8.27;2.80;;;;;;;13.44;77.25;101666.72;5016844;28;20040;-51
2022/05/22 06:33:39;;;;;;;8.13;2.95;;;;;;;13.60;77.46;101670.47;5016541;28;20492;-50
2022/05/22 06:36:15;;;;;;;9.15;3.20;;;;;;;13.81;77.26;101679.69;5016932;28;20045;-49
2022/05/22 06:41:25;;;;;;;9.02;2.45;;;;;;;13.97;75.36;101678.84;5017505;28;20041;-49
2022/05/22 06:43:51;;;;;;;6.57;2.47;;;;;;;13.92;75.29;101673.38;5017812;28;20029;-49
2022/05/22 06:46:19;;;;;;;7.68;3.03;;;;;;;13.94;75.13;101676.66;5016998;28;20030;-51
2022/05/22 06:48:44;;;;;;;8.68;2.45;;;;;;;13.93;74.55;101669.63;5015889;28;20426;-49
2022/05/22 06:51:10;;;;;;;8.02;2.40;;;;;;;13.94;74.87;101673.94;5016412;28;20028;-49
2022/05/22 06:53:36;;;;;;;9.80;2.33;;;;;;;14.00;74.85;101664.06;5015363;28;20025;-52
2022/05/22 06:56:01;;;;;;;9.32;2.50;;;;;;;14.05;75.02;101667.66;5018408;28;20135;-50
2022/05/22 06:58:27;;;;;;;6.50;2.50;;;;;;;14.04;74.81;101674.09;5020325;28;20539;-48
2022/05/22 07:00:52;;;;;;;9.50;2.42;;;;;;;14.10;74.75;101670.41;5021130;28;20049;-52
2022/05/22 07:03:18;;;;;;;5.97;2.60;;;;;;;14.20;74.38;101661.66;5019589;28;20030;-50
2022/05/22 07:05:44;;;;;;;7.05;2.72;;;;;;;14.31;74.06;101662.59;5017706;28;20502;-52
2022/05/22 07:08:09;;;;;;;6.45;2.88;;;;;;;14.41;73.82;101666.25;5018945;28;20024;-51
2022/05/22 07:13:20;;;;;;;6.43;2.30;;;;;;;14.75;73.02;101675.03;5013086;28;20060;-50
2022/05/22 07:15:55;;;;;;;5.22;2.72;;;;;;;14.69;71.56;101677.91;5020222;28;20051;-53
2022/05/22 07:18:21;;;;;;;7.68;2.65;;;;;;;14.72;71.75;101680.09;5015567;28;20038;-50
2022/05/22 07:20:46;;;;;;;3.70;2.15;;;;;;;14.84;71.37;101674.56;5017072;28;20037;-52
2022/05/22 07:23:12;;;;;;;5.45;2.50;;;;;;;14.90;70.59;101670.84;5013785;28;20060;-49
2022/05/22 07:25:37;;;;;;;6.78;2.47;;;;;;;14.93;70.14;101667.66;5015212;28;20530;-49
2022/05/22 07:28:03;;;;;;;7.53;2.65;;;;;;;14.91;69.80;101670.63;5020782;28;20054;-50
2022/05/22 07:30:28;;;;;;;4.40;2.20;;;;;;;14.90;69.82;101676.22;5019261;28;20144;-49
2022/05/22 07:32:55;;;;;;;7.10;2.08;;;;;;;14.92;69.73;101676.81;5019849;28;20071;-51
2022/05/22 07:35:20;;;;;;;6.03;2.15;;;;;;;14.90;69.35;101676.22;5012324;28;20025;-52
2022/05/22 07:37:50;;;;;;;6.63;1.95;;;;;;;14.93;69.13;101684.66;5020693;28;20032;-53
2022/05/22 07:40:15;;;;;;;8.73;2.33;;;;;;;14.99;69.74;101674.72;5018996;28;20029;-50
2022/05/22 07:42:41;;;;;;;5.60;2.22;;;;;;;15.03;69.18;101678.53;5020290;28;20403;-52
2022/05/22 07:45:07;;;;;;;4.15;1.95;;;;;;;15.05;68.70;101666.41;5019685;28;20046;-53
2022/05/22 07:47:33;;;;;;;5.50;2.13;;;;;;;15.06;68.36;101661.81;5020861;28;20025;-51
2022/05/22 07:50:16;;;;;;;4.22;1.90;;;;;;;15.01;68.01;101667.19;5022150;28;20032;-50
2022/05/22 07:52:42;;;;;;;3.33;2.00;;;;;;;14.94;68.02;101674.69;5021237;28;20033;-51
2022/05/22 07:55:14;;;;;;;7.22;2.03;;;;;;;14.92;67.88;101676.81;5020273;28;20087;-51
2022/05/22 07:57:44;;;;;;;4.72;2.10;;;;;;;14.88;68.10;101681.88;5022373;28;20441;-51
2022/05/22 08:00:12;;;;;;;4.90;1.95;;;;;;;14.79;67.54;101683.41;5018850;28;20049;-53
2022/05/22 08:02:38;;;;;;;6.05;1.90;;;;;;;14.77;67.85;101674.78;5020170;28;20025;-49
2022/05/22 08:05:05;;;;;;;8.98;2.17;;;;;;;14.82;68.17;101672.94;5020504;28;20040;-53
2022/05/22 08:07:32;;;;;;;4.97;1.88;;;;;;;14.89;68.18;101677.31;5027031;28;20030;-51
2022/05/22 08:09:58;;;;;;;8.02;2.25;;;;;;;14.94;68.35;101669.28;5027895;28;20035;-51
2022/05/22 08:12:24;;;;;;;4.80;1.85;;;;;;;14.98;68.07;101671.22;5024346;28;20029;-50
2022/05/22 08:14:50;;;;;;;4.95;2.30;;;;;;;15.01;67.80;101661.78;5028020;28;20079;-53
2022/05/22 08:17:19;;;;;;;6.70;2.05;;;;;;;14.91;67.38;101673.31;5027217;28;20263;-50
2022/05/22 08:19:45;;;;;;;8.90;2.30;;;;;;;14.93;67.65;101673.06;5025921;28;20033;-51
2022/05/22 08:22:11;;;;;;;6.25;2.13;;;;;;;14.97;68.14;101674.97;5024421;28;20257;-51
2022/05/22 08:24:37;;;;;;;8.88;2.08;;;;;;;14.99;67.94;101678.22;5024542;28;20072;-51
2022/05/22 08:27:03;;;;;;;3.03;1.83;;;;;;;14.98;67.83;101659.59;5026162;28;20379;-51
2022/05/22 08:29:28;;;;;;;7.30;2.15;;;;;;;14.97;67.50;101668.78;5016138;28;20022;-50
2022/05/22 08:31:54;;;;;;;5.00;1.83;;;;;;;14.97;67.72;101674.16;5022993;28;20075;-49
2022/05/22 08:34:20;;;;;;;7.90;2.10;;;;;;;14.97;67.70;101674.16;5021198;28;20030;-51
2022/05/22 08:36:45;;;;;;;6.20;2.00;;;;;;;14.92;66.94;101674.13;5019334;28;20040;-52
2022/05/22 08:39:11;;;;;;;6.85;1.90;;;;;;;14.80;66.11;101664.28;5021519;28;20410;-50
2022/05/22 08:41:50;;;;;;;9.00;2.22;;;;;;;14.73;66.31;101669.06;5019284;28;20041;-50
2022/05/22 08:44:27;;;;;;;9.98;2.10;;;;;;;14.74;66.53;101662.59;5017489;28;20037;-50
2022/05/22 08:47:21;;;;;;;3.13;1.83;;;;;;;14.76;66.87;101667.75;5018514;28;20032;-51
2022/05/22 08:49:54;;;;;;;5.70;2.38;;;;;;;14.79;67.18;101667.25;5021618;28;20490;-49
2022/05/22 08:52:38;;;;;;;4.22;1.92;;;;;;;14.86;67.51;101664.31;5016615;28;20041;-50
2022/05/22 08:58:58;;;;;;;5.10;2.05;;;;;;;14.95;67.07;101655.53;5017157;28;20076;-51
2022/05/22 09:01:30;;;;;;;10.02;2.28;;;;;;;14.98;66.80;101654.22;5018860;28;20105;-50
2022/05/22 09:04:04;;;;;;;7.30;2.13;;;;;;;14.95;66.29;101670.91;5017580;28;20082;-52
2022/05/22 09:06:39;;;;;;;12.82;7.47;;;;;;;14.88;66.34;101670.28;5015347;28;20040;-50
2022/05/22 09:09:06;;;;;;;6.70;3.45;;;;;;;14.94;66.43;101680.06;5017426;28;20049;-50
2022/05/22 09:11:52;;;;;;;6.60;2.35;;;;;;;14.94;66.83;101674.69;5018280;28;20112;-51
2022/05/22 09:14:29;;;;;;;8.88;2.42;;;;;;;14.91;67.11;101676.00;5017971;28;20026;-49
2022/05/22 09:17:17;;;;;;;6.15;1.90;;;;;;;14.83;67.36;101671.06;5021924;28;20260;-49
2022/05/22 09:19:46;;;;;;;4.07;2.00;;;;;;;14.81;68.18;101674.00;5019803;28;20040;-51
2022/05/22 09:22:28;;;;;;;3.47;2.08;;;;;;;14.78;69.63;101669.13;5020169;28;20429;-50
2022/05/22 09:25:20;;;;;;;6.25;2.13;;;;;;;14.80;68.78;101671.56;5017455;28;20048;-52
2022/05/22 09:27:45;;;;;;;8.82;2.15;;;;;;;14.90;68.47;101673.53;5018209;28;20121;-51
2022/05/22 09:30:27;;;;;;;6.82;2.83;;;;;;;14.92;68.15;101668.72;5019304;28;20104;-51
2022/05/22 09:33:30;;;;;;;10.95;2.35;;;;;;;14.90;67.79;101670.84;5021039;28;20037;-50
2022/05/22 09:36:24;;;;;;;9.80;2.42;;;;;;;14.97;68.38;101674.16;5021651;28;20038;-51
2022/05/22 09:39:15;;;;;;;7.25;2.17;;;;;;;15.04;68.77;101669.38;5018994;28;20419;-53
2022/05/22 09:42:19;;;;;;;7.07;2.50;;;;;;;15.10;68.87;101662.97;5018779;28;20033;-52
2022/05/22 09:45:03;;;;;;;6.55;2.38;;;;;;;15.28;68.64;101672.56;4981586;28;20129;-50
2022/05/22 09:47:46;;;;;;;6.50;2.40;;;;;;;15.50;68.82;101669.78;5015436;28;20040;-51
2022/05/22 09:50:14;;;;;;;4.95;2.35;;;;;;;15.68;68.32;101666.72;5022581;28;20026;-50
2022/05/22 09:53:05;;;;;;;8.07;2.40;;;;;;;15.72;66.85;101670.50;5018060;28;20354;-49
2022/05/22 09:55:36;;;;;;;9.07;2.42;;;;;;;15.77;66.41;101659.72;5020733;28;20025;-53
2022/05/22 09:58:28;;;;;;;6.57;2.42;;;;;;;15.84;65.10;101668.44;5019144;28;20037;-51
2022/05/22 10:01:32;;;;;;;4.60;2.13;;;;;;;15.92;65.26;101670.63;5016039;28;20159;-49
2022/05/22 10:04:06;;;;;;;7.60;2.72;;;;;;;16.07;65.06;101671.81;5018034;28;20112;-50
2022/05/22 10:06:41;;;;;;;8.95;2.22;;;;;;;16.06;63.98;101660.19;5013115;28;20048;-51
2022/05/22 10:09:27;;;;;;;10.10;2.30;;;;;;;16.06;63.93;101665.59;5011596;28;20030;-49
2022/05/22 10:12:21;;;;;;;5.68;2.00;;;;;;;16.13;64.83;101671.56;5013031;28;20053;-50
2022/05/22 10:15:01;;;;;;;6.77;1.90;;;;;;;16.21;63.27;101670.25;5017478;28;20562;-49
2022/05/22 10:18:15;;;;;;;7.53;2.10;;;;;;;16.19;63.21;101675.13;5013955;28;20033;-51
2022/05/22 10:21:00;;;;;;;3.35;1.83;;;;;;;16.24;64.31;101673.25;5013798;28;20124;-49
2022/05/22 10:23:58;;;;;;;6.78;2.47;;;;;;;16.27;64.43;101671.91;5015082;28;20022;-50
2022/05/22 10:26:29;;;;;;;4.30;2.17;;;;;;;16.32;64.65;101671.91;5000222;28;20033;-49
2022/05/22 10:29:23;;;;;;;6.75;2.35;;;;;;;16.35;65.07;101679.53;5016680;28;20036;-49
2022/05/22 10:32:06;;;;;;;5.95;2.03;;;;;;;16.37;63.70;101681.97;5013559;28;20124;-49
2022/05/22 10:34:50;;;;;;;7.78;2.40;;;;;;;16.39;63.95;101680.63;5013885;28;20025;-49
2022/05/22 10:37:35;;;;;;;4.77;2.20;;;;;;;16.39;64.43;101674.41;5015929;28;20032;-50
2022/05/22 10:40:07;;;;;;;6.65;2.45;;;;;;;16.41;64.19;101677.66;5016764;28;20278;-49
2022/05/22 10:42:45;;;;;;;18.98;10.65;;;;;;;16.39;63.91;101680.63;5019234;28;20064;-50
2022/05/22 10:45:32;;;;;;;36.20;21.25;;;;;;;16.35;64.38;101684.13;5023099;28;20031;-49
2022/05/22 10:48:11;;;;;;;48.38;31.92;;;;;;;16.27;63.70;101675.44;5024795;28;20041;-49
2022/05/22 10:50:38;;;;;;;7.50;3.83;;;;;;;16.29;63.97;101681.38;5022602;28;20048;-49
2022/05/22 10:53:03;;;;;;;4.97;2.60;;;;;;;16.30;63.96;101669.47;5019485;28;20120;-52
2022/05/22 10:55:44;;;;;;;5.38;2.20;;;;;;;16.40;64.69;101681.44;5019824;28;20435;-49
2022/05/22 10:58:25;;;;;;;5.63;2.10;;;;;;;16.53;63.38;101679.06;5018078;28;20040;-49
2022/05/22 11:00:56;;;;;;;7.15;2.15;;;;;;;16.69;62.74;101679.13;5017751;28;20605;-50
2022/05/22 11:03:26;;;;;;;5.45;2.20;;;;;;;16.76;62.15;101683.22;5017372;28;20033;-51
2022/05/22 11:05:53;;;;;;;8.70;2.00;;;;;;;16.85;62.28;101683.50;5018601;28;20026;-49
2022/05/22 11:08:34;;;;;;;6.28;2.55;;;;;;;16.93;61.75;101680.28;5018707;28;20448;-49
2022/05/22 11:11:14;;;;;;;6.78;2.20;;;;;;;16.92;61.64;101678.66;5018423;28;20154;-50
2022/05/22 11:13:41;;;;;;;7.68;2.17;;;;;;;17.00;61.52;101675.41;5015965;28;20033;-51
2022/05/22 11:16:15;;;;;;;6.45;1.95;;;;;;;17.05;61.78;101672.69;5019041;28;21091;-51
2022/05/22 11:18:41;;;;;;;;;;;;;;;17.00;60.98;101675.41;5017852;28;20499;-50
2022/05/22 11:21:32;;;;;;;5.78;1.85;;;;;;;16.92;60.75;101675.94;5018342;28;19960;-50
2022/05/22 11:24:13;;;;;;;6.93;1.90;;;;;;;16.74;60.28;101673.75;5019192;28;20633;-51
2022/05/22 11:26:53;;;;;;;4.15;1.67;;;;;;;16.59;60.38;101680.69;5021382;28;20033;-51
2022/05/22 11:29:37;;;;;;;4.00;1.75;;;;;;;16.49;60.53;101677.94;5020293;28;20030;-51
2022/05/22 11:32:49;;;;;;;5.75;1.55;;;;;;;16.44;59.47;101677.94;5018247;28;20242;-49
2022/05/22 11:35:38;;;;;;;5.65;1.88;;;;;;;16.49;60.05;101669.81;5003424;28;20412;-49
2022/05/22 11:38:25;;;;;;;5.30;1.42;;;;;;;16.66;60.01;101660.69;5020211;28;20110;-51
2022/05/22 11:41:14;;;;;;;4.95;1.63;;;;;;;16.83;60.09;101670.25;5019533;28;20032;-49
2022/05/22 11:44:13;;;;;;;3.97;1.60;;;;;;;17.08;60.40;101658.66;5017588;28;20396;-49
2022/05/22 11:46:57;;;;;;;3.75;1.67;;;;;;;17.27;59.88;101661.66;5018312;28;20029;-52
2022/05/22 11:49:29;;;;;;;3.33;1.65;;;;;;;17.34;58.84;101653.25;5015517;28;20529;-51
2022/05/22 11:52:05;;;;;;;3.38;1.50;;;;;;;17.35;58.54;101657.56;5016557;28;20087;-50
2022/05/22 11:54:59;;;;;;;10.05;1.65;;;;;;;17.30;57.62;101652.16;5017897;28;20399;-50
2022/05/22 11:57:39;;;;;;;6.47;1.70;;;;;;;17.31;58.80;101646.47;5015458;28;20033;-50